logo tempoitalia

Diretta Meteo Enid-Woodring, Stati Uniti (USA)lunedì 31 agosto ore 01:35

Mappa
Sereno 27 °C Sereno 24 Ore: T.min 22 T.max 40
Ponente Sud Km/h 9.3 Punto di rugiada: 16 °C Umidità: 50% Visibilità: 10 Km
Il sole sorge alle: 07:02 Il sole tramonta alle: 20:00
31 Agosto 2026 01:35 tempo osservato: Sereno Sereno 27 50 1013 vento: Nord S 9.3
31 Agosto 2026 01:15 tempo osservato: Sereno Sereno 27 50 1013 vento: Nord S/SE 13
31 Agosto 2026 00:55 tempo osservato: Sereno Sereno 27 50 1013 vento: Nord S 11.1
31 Agosto 2026 00:35 tempo osservato: Sereno Sereno 27 50 1012 vento: Nord S/SE 13
31 Agosto 2026 00:15 tempo osservato: Sereno Sereno 28 48 1012 vento: Nord S 13
30 Agosto 2026 23:55 tempo osservato: Sereno Sereno 27 50 1012 vento: Nord S 13
30 Agosto 2026 23:35 tempo osservato: Sereno Sereno 27 50 1012 vento: Nord S/SE 13
30 Agosto 2026 23:15 tempo osservato: Sereno Sereno 28 48 1012 vento: Nord S/SE 13
30 Agosto 2026 22:55 tempo osservato: Sereno Sereno 28 45 1012 vento: Nord S/SE 13
30 Agosto 2026 22:35 tempo osservato: Sereno Sereno 27 47 1012 vento: Nord SE 13
30 Agosto 2026 22:15 tempo osservato: Sereno Sereno 28 45 1012 vento: Nord E 11.1
30 Agosto 2026 21:55 tempo osservato: Sereno Sereno 28 45 1011 vento: Nord SE 11.1
30 Agosto 2026 21:35 tempo osservato: Sereno Sereno 28 45 1011 vento: Nord S/SE 9.3
30 Agosto 2026 21:15 tempo osservato: Sereno Sereno 29 42 1011 vento: Nord S/SE 11.1
30 Agosto 2026 20:55 tempo osservato: Poco Nuvoloso Poco Nuvoloso 29 42 1011 vento: Nord S/SE 14.8
30 Agosto 2026 19:50 tempo osservato: Poco Nuvoloso Poco Nuvoloso 35 30 1010 vento: Nord S 16.7
30 Agosto 2026 18:50 tempo osservato: Poco Nuvoloso Poco Nuvoloso 39 24 1010 vento: Nord S 29.6
30 Agosto 2026 17:59 tempo osservato: Sereno Sereno 40 23 1010 vento: Nord S 25.9
30 Agosto 2026 16:50 tempo osservato: Sereno Sereno 40 26 1010 vento: Nord S 29.6
30 Agosto 2026 15:45 tempo osservato: Sereno Sereno 40 26 1011 vento: Nord S/SO 24
30 Agosto 2026 14:45 tempo osservato: Sereno Sereno 40 26 1011 vento: Nord S 27.8
30 Agosto 2026 13:45 tempo osservato: Sereno Sereno 39 29 1012 vento: Nord S/SO 37
30 Agosto 2026 12:50 tempo osservato: Sereno Sereno 39 29 1013 vento: Nord S/SO 35.2
30 Agosto 2026 11:45 tempo osservato: Sereno Sereno 37 32 1014 vento: Nord S/SO 35.2
30 Agosto 2026 10:50 tempo osservato: Sereno Sereno 36 34 1014 vento: Nord S 35.2
30 Agosto 2026 08:55 tempo osservato: Sereno Sereno 29 48 1014 vento: Nord S 27.8
30 Agosto 2026 07:45 tempo osservato: Sereno Sereno 25 57 1014 vento: Nord S/SE 16.7
30 Agosto 2026 06:50 tempo osservato: Sereno Sereno 24 60 1014 vento: Nord S 7.4
30 Agosto 2026 06:15 tempo osservato: Sereno Sereno 23 68 1014 vento: Nord SE 11.1
30 Agosto 2026 05:55 tempo osservato: Sereno Sereno 23 64 1013 vento: Nord S/SE 9.3
30 Agosto 2026 05:35 tempo osservato: Sereno Sereno 23 64 1014 vento: Nord S 9.3
30 Agosto 2026 05:15 tempo osservato: Sereno Sereno 23 64 1013 vento: Nord S/SE 13
30 Agosto 2026 04:55 tempo osservato: Sereno Sereno 24 60 1013 vento: Nord S 11.1
30 Agosto 2026 04:35 tempo osservato: Sereno Sereno 23 64 1013 vento: Nord S 11.1
30 Agosto 2026 04:15 tempo osservato: Sereno Sereno 23 64 1013 vento: Nord S 11.1
30 Agosto 2026 03:55 tempo osservato: Sereno Sereno 22 68 1013 vento: Nord S 9.3
30 Agosto 2026 03:35 tempo osservato: Sereno Sereno 23 64 1013 vento: Nord S 7.4
30 Agosto 2026 03:15 tempo osservato: Sereno Sereno 23 64 1013 vento: Nord S 9.3
30 Agosto 2026 02:55 tempo osservato: Sereno Sereno 23 64 1013 vento: Nord S 11.1
30 Agosto 2026 02:35 tempo osservato: Sereno Sereno 23 64 1013 vento: Nord S/SE 9.3
30 Agosto 2026 02:15 tempo osservato: Sereno Sereno 24 60 1013 vento: Nord S 9.3
30 Agosto 2026 01:55 tempo osservato: Sereno Sereno 25 57 1013 vento: Nord S 11.1
30 Agosto 2026 01:35 tempo osservato: Sereno Sereno 24 60 1013 vento: Nord S 11.1